Time;durP1;ratioP1;P1;durP2;ratioP2;P2;SDS_P1;SDS_P2;PMS_P1;PMS_P2;Temp;Humidity;BMP_temperature;BMP_pressure;BME280_temperature;BME280_humidity;BME280_pressure;Samples;Min_cycle;Max_cycle;Signal;HPM_P1;HPM_P2
2022/09/06 00:00:09;;;;;;;919.47;863.27;;;;;;;19.54;72.92;100294.75;339318;29;1273;-77
2022/09/06 00:00:20;;;;;;;910.75;854.60;;;;;;;19.56;72.62;100295.50;336316;29;1978;-79
2022/09/06 00:00:30;;;;;;;911.10;854.77;;;;;;;19.57;72.83;100294.53;336349;29;1541;-78
2022/09/06 00:00:40;;;;;;;905.22;849.25;;;;;;;19.57;72.67;100291.03;337386;29;1335;-78
2022/09/06 00:00:51;;;;;;;902.87;847.00;;;;;;;19.57;72.89;100296.34;336822;29;803;-78
2022/09/06 00:01:11;;;;;;;906.57;850.73;;;;;;;19.57;72.79;100301.66;339386;28;1292;-78
2022/09/06 00:01:22;;;;;;;906.80;851.25;;;;;;;19.56;72.79;100294.63;335375;29;5326;-78
2022/09/06 00:01:32;;;;;;;907.08;851.35;;;;;;;19.54;73.01;100291.22;332508;29;1376;-78
2022/09/06 00:01:43;;;;;;;911.03;855.03;;;;;;;19.52;72.80;100294.00;331232;29;1639;-78
2022/09/06 00:01:53;;;;;;;920.60;864.22;;;;;;;19.52;72.89;100294.00;334156;29;1230;-78
2022/09/06 00:02:04;;;;;;;919.23;862.83;;;;;;;19.55;72.93;100300.91;331688;29;1789;-78
2022/09/06 00:02:14;;;;;;;916.30;860.08;;;;;;;19.56;72.97;100291.97;331131;29;1895;-78
2022/09/06 00:02:24;;;;;;;909.07;853.17;;;;;;;19.58;72.88;100298.03;331987;29;972;-78
2022/09/06 00:02:35;;;;;;;908.70;852.93;;;;;;;19.60;72.82;100299.63;330356;29;2224;-78
2022/09/06 00:02:46;;;;;;;907.53;851.85;;;;;;;19.63;72.77;100305.69;331307;29;1858;-78
2022/09/06 00:02:56;;;;;;;915.05;858.97;;;;;;;19.63;72.69;100290.63;326741;30;1276;-78
2022/09/06 00:03:07;;;;;;;916.40;860.27;;;;;;;19.66;72.44;100292.22;326818;30;1376;-78
2022/09/06 00:03:17;;;;;;;915.10;858.83;;;;;;;19.67;72.30;100291.25;328511;29;3047;-79
2022/09/06 00:03:28;;;;;;;907.03;851.10;;;;;;;19.66;72.31;100294.88;327514;29;3075;-78
2022/09/06 00:03:38;;;;;;;910.88;854.63;;;;;;;19.67;72.45;100300.09;327975;30;1897;-78
2022/09/06 00:03:49;;;;;;;912.70;856.50;;;;;;;19.69;72.63;100299.97;326135;30;2977;-78
2022/09/06 00:03:59;;;;;;;909.10;853.13;;;;;;;19.67;72.66;100296.56;325603;29;2271;-78
2022/09/06 00:04:10;;;;;;;902.37;846.83;;;;;;;19.62;72.60;100293.38;328153;30;797;-78
2022/09/06 00:04:20;;;;;;;905.70;850.08;;;;;;;19.60;72.53;100296.13;322823;30;2149;-78
2022/09/06 00:04:32;;;;;;;909.00;853.13;;;;;;;19.58;72.66;100298.03;323557;30;2248;-78
2022/09/06 00:04:42;;;;;;;906.95;851.22;;;;;;;19.58;72.77;100293.59;324403;30;2649;-78
2022/09/06 00:04:53;;;;;;;907.20;851.43;;;;;;;19.57;72.87;100294.53;324643;30;1411;-78
2022/09/06 00:05:04;;;;;;;909.25;853.20;;;;;;;19.57;72.89;100296.34;325135;30;2108;-78
2022/09/06 00:05:14;;;;;;;916.78;860.30;;;;;;;19.56;72.77;100298.16;328732;30;1278;-79
2022/09/06 00:05:25;;;;;;;919.93;863.43;;;;;;;19.55;73.19;100291.13;326820;30;1290;-78
2022/09/06 00:05:35;;;;;;;919.97;863.53;;;;;;;19.53;72.91;100293.03;324376;30;1892;-78
2022/09/06 00:05:46;;;;;;;908.22;852.38;;;;;;;19.53;72.88;100293.03;320348;30;2857;-77
2022/09/06 00:05:56;;;;;;;903.83;848.30;;;;;;;19.53;72.87;100295.69;318574;31;1440;-78
2022/09/06 00:06:08;;;;;;;905.70;850.10;;;;;;;19.55;72.82;100298.25;317618;31;1309;-78
2022/09/06 00:06:19;;;;;;;916.30;860.30;;;;;;;19.55;73.10;100296.44;315713;31;2894;-78
2022/09/06 00:06:29;;;;;;;913.40;857.40;;;;;;;19.56;72.75;100295.50;314691;31;3146;-78
2022/09/06 00:06:40;;;;;;;910.88;854.88;;;;;;;19.58;73.13;100303.34;314048;31;1527;-78
2022/09/06 00:06:50;;;;;;;901.53;845.77;;;;;;;19.55;73.07;100299.09;312264;31;3093;-78
2022/09/06 00:07:00;;;;;;;904.80;848.80;;;;;;;19.55;73.09;100303.56;311510;31;3246;-78
2022/09/06 00:07:11;;;;;;;907.80;851.80;;;;;;;19.54;73.11;100292.09;309667;31;1427;-78
2022/09/06 00:07:21;;;;;;;909.78;853.88;;;;;;;19.55;72.60;100299.09;308323;32;872;-78
2022/09/06 00:07:32;;;;;;;908.03;852.17;;;;;;;19.55;73.11;100299.09;308584;31;1659;-78
2022/09/06 00:07:42;;;;;;;909.83;853.87;;;;;;;19.55;73.00;100301.75;304891;32;2651;-78
2022/09/06 00:07:52;;;;;;;910.90;854.92;;;;;;;19.53;72.99;100298.34;302258;32;1290;-78
2022/09/06 00:08:04;;;;;;;913.43;857.40;;;;;;;19.54;73.27;100302.69;302235;32;2893;-78
2022/09/06 00:08:14;;;;;;;913.15;857.08;;;;;;;19.56;72.89;100306.09;301522;32;4343;-78
2022/09/06 00:08:25;;;;;;;919.20;862.80;;;;;;;19.57;72.74;100302.50;300088;32;1333;-78
2022/09/06 00:08:36;;;;;;;921.80;865.25;;;;;;;19.58;72.80;100304.19;296280;33;4173;-78
2022/09/06 00:08:46;;;;;;;919.20;862.72;;;;;;;19.60;72.82;100302.28;295142;33;5042;-78
2022/09/06 00:08:57;;;;;;;909.03;852.87;;;;;;;19.62;72.83;100296.03;290739;33;4365;-78
2022/09/06 00:09:07;;;;;;;898.83;842.93;;;;;;;19.62;72.64;100304.00;295282;33;1234;-78
2022/09/06 00:09:18;;;;;;;900.10;844.27;;;;;;;19.63;72.66;100300.38;295796;33;3791;-78
2022/09/06 00:09:28;;;;;;;897.92;842.00;;;;;;;19.65;72.45;100301.13;295011;33;2989;-78
2022/09/06 00:09:39;;;;;;;899.23;843.30;;;;;;;19.65;72.76;100301.13;292210;33;1238;-78
2022/09/06 00:09:49;;;;;;;897.15;841.25;;;;;;;19.65;72.53;100295.81;293925;33;2708;-78
2022/09/06 00:10:00;;;;;;;898.80;843.10;;;;;;;19.64;72.82;100307.41;293134;33;3857;-78
2022/09/06 00:10:10;;;;;;;897.60;841.95;;;;;;;19.63;72.49;100308.34;294158;33;1555;-79
2022/09/06 00:10:21;;;;;;;891.15;835.58;;;;;;;19.62;72.61;100298.69;287439;33;3731;-79
2022/09/06 00:10:33;;;;;;;891.30;835.50;;;;;;;19.63;72.38;100305.69;284579;34;5741;-79
2022/09/06 00:10:43;;;;;;;896.53;840.63;;;;;;;19.64;72.58;100307.41;280891;34;6409;-79
2022/09/06 00:10:57;;;;;;;894.77;838.97;;;;;;;19.63;72.55;100305.69;284815;34;1206;-79
2022/09/06 00:11:07;;;;;;;898.35;842.47;;;;;;;19.58;72.83;100304.19;287516;34;889;-79
2022/09/06 00:11:18;;;;;;;901.75;846.08;;;;;;;19.54;72.62;100307.16;285534;34;5983;-78
2022/09/06 00:11:28;;;;;;;908.83;852.87;;;;;;;19.48;72.96;100308.41;282998;34;5035;-76
2022/09/06 00:11:39;;;;;;;914.15;858.13;;;;;;;19.43;73.19;100305.22;282857;35;850;-78
2022/09/06 00:11:49;;;;;;;907.50;851.63;;;;;;;19.40;73.29;100307.22;280356;34;4364;-78
2022/09/06 00:11:59;;;;;;;910.10;854.15;;;;;;;19.39;73.46;100302.88;278205;35;3971;-78
2022/09/06 00:12:10;;;;;;;913.30;857.17;;;;;;;19.37;73.56;100305.63;278336;35;862;-78
2022/09/06 00:12:20;;;;;;;924.97;868.55;;;;;;;19.40;73.49;100308.06;279673;35;6776;-78
2022/09/06 00:12:31;;;;;;;933.00;876.20;;;;;;;19.41;73.20;100306.28;273204;35;6129;-77
2022/09/06 00:12:41;;;;;;;935.75;878.97;;;;;;;19.40;73.52;100305.41;270957;35;7436;-77
2022/09/06 00:12:52;;;;;;;932.87;876.03;;;;;;;19.42;73.37;100303.50;269094;36;2367;-77
2022/09/06 00:13:04;;;;;;;924.63;868.15;;;;;;;19.45;73.50;100307.78;267744;36;9389;-77
2022/09/06 00:13:15;;;;;;;922.60;866.13;;;;;;;19.45;73.17;100308.63;265439;36;10349;-78
2022/09/06 00:13:25;;;;;;;926.10;869.70;;;;;;;19.46;73.41;100310.31;264007;37;1226;-78
2022/09/06 00:15:18;;;;;;;852.67;798.92;;;;;;;19.54;72.83;100312.47;2493248;27;20487;-78
2022/09/06 00:15:28;;;;;;;905.70;849.73;;;;;;;19.52;72.93;100304.59;352652;28;1090;-78
2022/09/06 00:15:39;;;;;;;909.83;853.75;;;;;;;19.52;73.08;100312.56;351669;28;1238;-78
2022/09/06 00:15:49;;;;;;;910.87;854.80;;;;;;;19.50;73.30;100306.47;350296;28;1251;-78
2022/09/06 00:16:07;;;;;;;910.78;854.72;;;;;;;19.47;73.01;100311.19;346139;28;1324;-78
2022/09/06 00:16:20;;;;;;;910.97;854.92;;;;;;;19.44;73.55;100308.72;347496;28;5328;-78
2022/09/06 00:16:30;;;;;;;913.63;857.67;;;;;;;19.43;73.03;100313.19;347478;28;1278;-77
2022/09/06 00:16:41;;;;;;;918.20;862.10;;;;;;;19.41;73.16;100304.47;347605;28;895;-77
2022/09/06 00:16:51;;;;;;;916.97;860.85;;;;;;;19.41;73.21;100309.78;348706;28;1590;-77
2022/09/06 00:17:02;;;;;;;915.47;859.33;;;;;;;19.41;73.38;100309.78;347598;28;1347;-77
2022/09/06 00:17:12;;;;;;;915.92;859.55;;;;;;;19.41;73.50;100309.78;348288;28;1297;-77
2022/09/06 00:17:22;;;;;;;919.40;862.73;;;;;;;19.43;73.37;100310.53;348897;28;939;-77
2022/09/06 00:17:33;;;;;;;915.33;858.37;;;;;;;19.44;73.07;100306.91;347601;28;868;-78
2022/09/06 00:17:44;;;;;;;909.70;852.63;;;;;;;19.47;73.08;100312.03;348849;28;1223;-78
2022/09/06 00:17:57;;;;;;;909.08;852.17;;;;;;;19.47;73.01;100301.41;349815;28;1733;-78
2022/09/06 00:18:07;;;;;;;913.67;856.92;;;;;;;19.50;73.06;100311.78;346217;28;939;-78
2022/09/06 00:18:17;;;;;;;907.17;851.00;;;;;;;19.49;73.11;100299.50;346191;28;1377;-78
2022/09/06 00:18:28;;;;;;;913.28;856.67;;;;;;;19.52;73.05;100306.41;347502;28;1290;-77
2022/09/06 00:18:40;;;;;;;907.97;851.40;;;;;;;19.52;72.75;100309.06;346028;28;1196;-77
2022/09/06 00:18:54;;;;;;;918.28;861.30;;;;;;;19.55;72.49;100311.53;346238;28;825;-77
2022/09/06 00:19:04;;;;;;;915.70;859.03;;;;;;;19.56;72.87;100306.09;343308;28;1156;-77
2022/09/06 00:19:15;;;;;;;913.10;856.55;;;;;;;19.58;72.65;100311.31;344835;28;1742;-78
2022/09/06 00:19:26;;;;;;;908.00;851.60;;;;;;;19.59;72.56;100310.38;346646;28;1243;-78
2022/09/06 00:19:37;;;;;;;906.97;850.97;;;;;;;19.59;72.78;100308.56;346143;28;1314;-78
2022/09/06 00:19:47;;;;;;;912.40;856.37;;;;;;;19.62;72.68;100309.31;346066;28;1636;-77
2022/09/06 00:19:57;;;;;;;913.88;857.90;;;;;;;19.62;72.80;100309.31;350250;28;1235;-78
2022/09/06 00:20:08;;;;;;;918.60;862.50;;;;;;;19.63;72.86;100305.69;350485;28;1253;-78
2022/09/06 00:20:18;;;;;;;915.13;859.13;;;;;;;19.64;72.23;100310.91;348905;28;1199;-78
2022/09/06 00:20:29;;;;;;;912.77;856.73;;;;;;;19.65;72.32;100306.44;347646;28;1182;-78
2022/09/06 00:20:40;;;;;;;904.78;848.95;;;;;;;19.66;72.56;100310.81;348581;28;1331;-78
2022/09/06 00:20:50;;;;;;;906.80;850.92;;;;;;;19.65;72.24;100303.78;346168;28;853;-78
2022/09/06 00:21:02;;;;;;;907.77;851.90;;;;;;;19.64;72.58;100308.25;344662;28;1233;-78
2022/09/06 00:21:23;;;;;;;902.83;847.05;;;;;;;19.64;72.36;100312.72;345248;28;1033;-78
2022/09/06 00:21:34;;;;;;;899.15;843.47;;;;;;;19.62;72.68;100312.81;342795;28;2542;-78
2022/09/06 00:21:45;;;;;;;906.53;850.65;;;;;;;19.60;72.83;100310.25;339716;28;3339;-77
2022/09/06 00:21:55;;;;;;;900.07;844.37;;;;;;;19.62;72.83;100314.63;340851;28;1703;-77
2022/09/06 00:22:05;;;;;;;896.78;840.88;;;;;;;19.58;72.86;100309.50;338937;29;1801;-77
2022/09/06 00:22:16;;;;;;;901.07;845.03;;;;;;;19.58;72.93;100309.50;340615;28;2692;-78
2022/09/06 00:22:26;;;;;;;911.05;854.83;;;;;;;19.56;72.86;100305.25;340831;29;758;-78
2022/09/06 00:22:37;;;;;;;912.27;856.10;;;;;;;19.55;73.29;100306.22;339579;29;935;-78
2022/09/06 00:22:47;;;;;;;908.15;852.10;;;;;;;19.53;72.94;100301.00;340797;29;1315;-78
2022/09/06 00:23:03;;;;;;;910.23;854.30;;;;;;;19.50;73.19;100301.16;342393;28;1653;-78
2022/09/06 00:23:14;;;;;;;918.08;862.00;;;;;;;19.48;73.30;100303.13;337910;29;4858;-78
2022/09/06 00:23:24;;;;;;;908.20;852.22;;;;;;;19.47;73.29;100306.72;339615;28;1230;-78
2022/09/06 00:23:36;;;;;;;904.78;848.92;;;;;;;19.46;73.38;100305.00;340555;29;2057;-78
2022/09/06 00:23:47;;;;;;;904.70;848.80;;;;;;;19.48;73.25;100308.41;335552;29;1445;-78
2022/09/06 00:24:00;;;;;;;906.28;850.47;;;;;;;19.47;73.69;100301.41;332170;29;1646;-78
2022/09/06 00:24:11;;;;;;;902.05;846.50;;;;;;;19.47;73.25;100306.72;334211;29;5323;-78
2022/09/06 00:24:21;;;;;;;896.03;840.60;;;;;;;19.47;73.46;100305.88;335710;29;1010;-78
2022/09/06 00:24:32;;;;;;;895.50;839.95;;;;;;;19.47;73.27;100306.72;335579;29;1280;-78
2022/09/06 00:24:42;;;;;;;896.03;840.27;;;;;;;19.50;72.96;100310.94;338852;29;1302;-78
2022/09/06 00:24:52;;;;;;;903.33;847.40;;;;;;;19.49;73.13;100309.28;337231;29;1331;-78
2022/09/06 00:25:05;;;;;;;903.28;847.28;;;;;;;19.48;72.98;100308.41;334839;29;1255;-78
2022/09/06 00:25:15;;;;;;;908.42;852.30;;;;;;;19.47;73.00;100306.72;338646;29;1490;-78
2022/09/06 00:25:26;;;;;;;906.70;850.65;;;;;;;19.49;72.98;100301.31;337865;29;1572;-78
2022/09/06 00:25:36;;;;;;;910.27;854.13;;;;;;;19.47;72.87;100309.38;334139;29;1661;-78
2022/09/06 00:25:47;;;;;;;912.13;855.88;;;;;;;19.39;73.28;100309.03;329325;30;1020;-78
2022/09/06 00:26:01;;;;;;;919.97;863.47;;;;;;;19.32;73.46;100306.88;330265;29;2116;-78
2022/09/06 00:26:12;;;;;;;919.05;862.75;;;;;;;19.28;73.81;100304.41;333759;29;2182;-78
2022/09/06 00:26:22;;;;;;;911.55;855.58;;;;;;;19.23;74.19;100301.22;332686;29;1823;-78
2022/09/06 00:26:34;;;;;;;913.57;857.33;;;;;;;19.21;74.29;100302.25;327906;30;1538;-78
2022/09/06 00:26:45;;;;;;;917.03;860.72;;;;;;;19.24;73.97;100302.06;332458;29;1427;-78
2022/09/06 00:26:55;;;;;;;925.10;868.50;;;;;;;19.26;73.95;100302.81;332898;29;1358;-78
2022/09/06 00:27:06;;;;;;;922.72;866.15;;;;;;;19.28;73.86;100307.06;329400;30;899;-78
2022/09/06 00:27:16;;;;;;;922.15;865.70;;;;;;;19.31;73.75;100306.03;325479;30;1791;-78
2022/09/06 00:27:27;;;;;;;915.10;858.87;;;;;;;19.34;73.80;100305.81;324570;30;2135;-78
2022/09/06 00:27:37;;;;;;;910.67;854.42;;;;;;;19.34;73.78;100300.50;320839;30;2025;-78
2022/09/06 00:27:53;;;;;;;908.90;852.53;;;;;;;19.36;73.58;100298.59;323216;30;1453;-78
2022/09/06 00:28:04;;;;;;;918.35;862.05;;;;;;;19.37;73.75;100305.63;327079;30;831;-77
2022/09/06 00:28:14;;;;;;;920.30;864.00;;;;;;;19.36;73.67;100303.06;326430;30;2429;-77
2022/09/06 00:28:25;;;;;;;916.20;859.90;;;;;;;19.36;73.62;100297.75;322140;30;2866;-77
2022/09/06 00:28:35;;;;;;;918.03;861.63;;;;;;;19.35;73.52;100302.22;322112;30;1359;-77
2022/09/06 00:28:46;;;;;;;923.47;866.93;;;;;;;19.35;73.43;100296.06;321799;30;1828;-77
2022/09/06 00:28:57;;;;;;;928.20;871.13;;;;;;;19.37;73.47;100304.78;324110;30;1330;-77
2022/09/06 00:29:08;;;;;;;923.08;866.17;;;;;;;19.37;73.50;100302.97;321444;30;1776;-77
2022/09/06 00:29:18;;;;;;;921.40;864.53;;;;;;;19.38;73.60;100306.47;322031;30;1474;-77
2022/09/06 00:29:28;;;;;;;922.97;866.27;;;;;;;19.36;73.70;100301.25;324810;30;2740;-77
2022/09/06 00:29:39;;;;;;;920.92;864.40;;;;;;;19.33;73.54;100303.28;325925;30;3081;-78
2022/09/06 00:29:50;;;;;;;925.30;868.63;;;;;;;19.29;73.82;100305.28;322080;30;829;-78
2022/09/06 00:30:03;;;;;;;924.63;867.95;;;;;;;19.29;73.60;100307.94;319420;30;2497;-78
2022/09/06 00:30:13;;;;;;;921.42;864.92;;;;;;;19.32;73.88;100302.41;316160;30;2781;-78
2022/09/06 00:30:25;;;;;;;917.65;861.25;;;;;;;19.30;73.93;100304.31;315707;30;3193;-78
2022/09/06 00:30:36;;;;;;;919.00;862.50;;;;;;;19.30;73.97;100301.66;316325;31;747;-78
2022/09/06 00:30:46;;;;;;;918.40;861.93;;;;;;;19.30;74.02;100304.31;315960;31;3329;-78
2022/09/06 00:30:57;;;;;;;922.10;865.55;;;;;;;19.27;74.02;100300.06;315708;31;2999;-78
2022/09/06 00:31:16;;;;;;;924.15;867.45;;;;;;;19.27;74.16;100313.34;315760;31;1913;-79
2022/09/06 00:31:27;;;;;;;926.08;869.22;;;;;;;19.25;73.93;100298.47;313198;31;3185;-77
2022/09/06 00:31:37;;;;;;;925.70;868.92;;;;;;;19.22;74.21;100299.50;310392;31;3815;-77
2022/09/06 00:31:48;;;;;;;923.33;866.43;;;;;;;19.22;73.94;100299.50;308527;32;955;-77
2022/09/06 00:31:59;;;;;;;927.20;870.22;;;;;;;19.25;74.06;100295.81;306289;31;4635;-78
2022/09/06 00:32:09;;;;;;;929.67;872.57;;;;;;;19.24;74.06;100300.25;302693;32;4445;-78
2022/09/06 00:32:19;;;;;;;930.90;873.85;;;;;;;19.24;74.20;100294.09;300965;32;1222;-78
2022/09/06 00:32:31;;;;;;;930.60;873.53;;;;;;;19.26;74.24;100302.81;296291;32;3911;-78
2022/09/06 00:32:41;;;;;;;933.33;876.08;;;;;;;19.24;73.93;100289.66;297567;32;3739;-77
2022/09/06 00:32:52;;;;;;;932.83;875.78;;;;;;;19.26;73.94;100303.66;298307;33;4458;-79
2022/09/06 00:33:02;;;;;;;933.45;876.47;;;;;;;19.27;74.14;100299.22;290212;33;1284;-79
2022/09/06 00:33:13;;;;;;;927.07;870.33;;;;;;;19.28;73.78;100300.91;294401;33;3223;-78
2022/09/06 00:33:23;;;;;;;926.00;869.20;;;;;;;19.28;73.60;100304.41;295862;32;3029;-78
2022/09/06 00:33:37;;;;;;;920.43;863.83;;;;;;;19.30;73.93;100301.66;297068;33;1212;-78
2022/09/06 00:33:47;;;;;;;913.53;857.35;;;;;;;19.31;73.94;100300.72;294969;33;4881;-78
2022/09/06 00:33:58;;;;;;;910.97;854.63;;;;;;;19.33;73.86;100304.13;291807;33;5483;-78
2022/09/06 00:34:08;;;;;;;916.13;859.53;;;;;;;19.34;73.75;100300.50;288369;33;7214;-78
2022/09/06 00:34:18;;;;;;;918.53;861.80;;;;;;;19.38;73.51;100306.47;284567;34;979;-78
2022/09/06 00:34:29;;;;;;;922.65;865.92;;;;;;;19.38;73.65;100301.16;286430;34;6887;-78
2022/09/06 00:34:39;;;;;;;924.33;867.57;;;;;;;19.39;73.30;100305.53;288767;33;6313;-78
2022/09/06 00:34:50;;;;;;;924.30;867.42;;;;;;;19.41;73.48;100306.28;288317;34;1408;-78
2022/09/06 00:35:00;;;;;;;925.60;868.67;;;;;;;19.43;73.18;100305.22;285042;34;6519;-77
2022/09/06 00:35:11;;;;;;;913.30;856.75;;;;;;;19.43;73.18;100305.22;283112;34;6093;-77
2022/09/06 00:35:23;;;;;;;907.70;851.43;;;;;;;19.47;73.36;100301.41;283633;34;1392;-77
2022/09/06 00:35:34;;;;;;;905.15;849.03;;;;;;;19.49;73.19;100310.13;276579;35;943;-77
2022/09/06 00:35:46;;;;;;;915.58;859.25;;;;;;;19.50;72.98;100301.16;274452;35;5606;-77
2022/09/06 00:37:42;;;;;;;842.95;789.06;;;;;;;19.57;72.92;100313.13;2502854;27;20272;-78
2022/09/06 00:37:59;;;;;;;910.60;854.43;;;;;;;19.58;72.75;100320.13;355044;27;1647;-77
2022/09/06 00:38:10;;;;;;;908.15;852.05;;;;;;;19.59;72.78;100313.88;350105;28;5385;-77
2022/09/06 00:38:20;;;;;;;907.83;851.83;;;;;;;19.58;72.92;100316.63;350317;28;868;-77
2022/09/06 00:38:31;;;;;;;908.70;852.67;;;;;;;19.58;72.90;100309.50;349013;28;1563;-77
2022/09/06 00:38:41;;;;;;;910.95;854.88;;;;;;;19.59;72.61;100310.38;347530;28;1219;-77
2022/09/06 00:38:52;;;;;;;905.20;849.27;;;;;;;19.60;72.63;100310.25;347621;28;1002;-77
2022/09/06 00:39:02;;;;;;;904.90;848.92;;;;;;;19.62;72.47;100314.63;350350;28;1227;-78
2022/09/06 00:39:13;;;;;;;906.42;850.45;;;;;;;19.60;72.43;100312.91;347673;28;1227;-78
2022/09/06 00:39:23;;;;;;;913.70;857.40;;;;;;;19.60;72.73;100310.25;347982;28;890;-77
2022/09/06 00:39:34;;;;;;;912.25;856.20;;;;;;;19.62;72.76;100311.97;346883;28;962;-77
2022/09/06 00:39:44;;;;;;;913.30;857.27;;;;;;;19.62;72.58;100312.81;350454;28;1212;-78
2022/09/06 00:39:54;;;;;;;910.65;854.85;;;;;;;19.62;72.62;100315.47;350301;28;1257;-78
2022/09/06 00:40:06;;;;;;;910.43;854.43;;;;;;;19.60;72.82;100312.91;349143;28;2783;-78
2022/09/06 00:40:17;;;;;;;910.55;854.50;;;;;;;19.64;72.66;100312.72;347589;28;1316;-78
2022/09/06 00:40:28;;;;;;;913.60;857.30;;;;;;;19.64;72.80;100313.56;348895;28;1322;-78
2022/09/06 00:40:38;;;;;;;918.47;862.17;;;;;;;19.64;72.66;100307.41;347733;28;3108;-78
2022/09/06 00:40:49;;;;;;;911.03;854.97;;;;;;;19.65;72.48;100309.97;346685;28;972;-77
2022/09/06 00:40:59;;;;;;;909.83;853.90;;;;;;;19.65;72.63;100309.09;345217;28;1460;-77
2022/09/06 00:41:11;;;;;;;902.75;846.95;;;;;;;19.65;72.67;100314.41;346629;28;1311;-77
2022/09/06 00:41:22;;;;;;;897.78;842.28;;;;;;;19.64;72.72;100307.41;347847;28;1468;-77
2022/09/06 00:41:32;;;;;;;887.87;832.70;;;;;;;19.64;73.00;100310.06;348579;28;1387;-77
2022/09/06 00:41:43;;;;;;;888.97;833.77;;;;;;;19.65;72.60;100309.97;350539;28;1319;-78
2022/09/06 00:41:53;;;;;;;891.40;836.03;;;;;;;19.65;72.44;100303.78;349153;28;1113;-77
2022/09/06 00:42:07;;;;;;;898.83;843.22;;;;;;;19.65;72.30;100309.09;347940;28;1112;-77
2022/09/06 00:42:18;;;;;;;899.92;844.25;;;;;;;19.66;72.71;100305.50;348151;28;1007;-77
2022/09/06 00:42:28;;;;;;;900.78;845.10;;;;;;;19.64;72.65;100308.25;347818;28;1183;-77
2022/09/06 00:42:39;;;;;;;906.10;850.20;;;;;;;19.66;72.40;100316.97;347600;28;1058;-77
2022/09/06 00:42:49;;;;;;;902.13;846.38;;;;;;;19.68;72.49;100314.22;346302;28;1376;-77
2022/09/06 00:43:00;;;;;;;897.43;841.80;;;;;;;19.65;72.43;100309.97;349009;28;1337;-77
2022/09/06 00:43:10;;;;;;;888.97;833.67;;;;;;;19.65;72.41;100307.31;348829;28;1163;-77
2022/09/06 00:43:20;;;;;;;885.97;830.67;;;;;;;19.66;72.38;100310.81;344497;28;1233;-77
2022/09/06 00:43:31;;;;;;;884.63;829.33;;;;;;;19.64;72.53;100310.06;350080;28;1306;-78
2022/09/06 00:43:42;;;;;;;884.83;829.47;;;;;;;19.65;72.77;100314.41;348728;28;1357;-78
2022/09/06 00:43:53;;;;;;;891.10;835.50;;;;;;;19.63;72.74;100311.88;348194;28;1231;-78
2022/09/06 00:44:04;;;;;;;895.85;839.95;;;;;;;19.60;72.61;100312.91;348768;28;1382;-78
2022/09/06 00:44:14;;;;;;;900.70;844.53;;;;;;;19.59;72.96;100310.38;343375;28;1452;-78
2022/09/06 00:44:25;;;;;;;897.23;841.33;;;;;;;19.57;72.68;100313.13;345354;28;1210;-77
2022/09/06 00:44:36;;;;;;;897.17;841.40;;;;;;;19.53;72.82;100308.97;346880;28;1102;-77
2022/09/06 00:44:46;;;;;;;897.65;842.13;;;;;;;19.52;73.21;100309.91;340875;29;1178;-77
2022/09/06 00:44:57;;;;;;;903.45;847.72;;;;;;;19.50;73.51;100305.63;344853;28;1182;-77
2022/09/06 00:45:08;;;;;;;907.63;851.80;;;;;;;19.51;73.34;100308.22;346022;28;1420;-77
2022/09/06 00:45:18;;;;;;;915.85;859.65;;;;;;;19.51;73.25;100315.34;343390;28;1595;-77
2022/09/06 00:45:29;;;;;;;912.25;856.20;;;;;;;19.50;73.26;100314.44;342356;29;1328;-77
2022/09/06 00:45:39;;;;;;;911.80;855.63;;;;;;;19.50;73.19;100310.94;343323;28;1486;-77
2022/09/06 00:45:50;;;;;;;907.13;851.22;;;;;;;19.49;73.24;100315.44;341425;28;1230;-77
2022/09/06 00:46:00;;;;;;;913.33;857.23;;;;;;;19.50;73.05;100311.78;341844;29;881;-77
2022/09/06 00:46:15;;;;;;;916.83;860.55;;;;;;;19.50;73.15;100309.13;337991;29;1314;-77
2022/09/06 00:46:27;;;;;;;914.80;858.60;;;;;;;19.51;73.19;100308.22;341714;28;1524;-77
2022/09/06 00:46:39;;;;;;;912.17;856.10;;;;;;;19.54;73.05;100315.97;341466;28;1434;-77
2022/09/06 00:46:50;;;;;;;906.72;850.92;;;;;;;19.56;73.02;100311.41;336608;29;1389;-77
2022/09/06 00:47:02;;;;;;;907.65;851.83;;;;;;;19.58;73.20;100309.50;337003;29;1490;-77
2022/09/06 00:47:12;;;;;;;910.50;854.65;;;;;;;19.60;72.91;100312.91;338161;29;1310;-78
2022/09/06 00:47:22;;;;;;;912.85;856.95;;;;;;;19.60;72.76;100309.41;339713;28;1402;-78
2022/09/06 00:47:34;;;;;;;913.77;857.90;;;;;;;19.62;72.70;100311.97;336443;29;1475;-78
2022/09/06 00:47:44;;;;;;;911.67;855.72;;;;;;;19.62;72.81;100309.31;333275;29;894;-78
2022/09/06 00:47:55;;;;;;;906.53;850.73;;;;;;;19.60;72.91;100312.91;338066;29;1941;-78
2022/09/06 00:48:05;;;;;;;904.58;848.75;;;;;;;19.62;72.70;100311.97;339028;29;1779;-78
2022/09/06 00:48:16;;;;;;;909.73;853.87;;;;;;;19.60;72.75;100314.72;336265;29;1211;-78
2022/09/06 00:48:26;;;;;;;910.53;854.67;;;;;;;19.60;72.74;100314.72;329880;29;1760;-78
2022/09/06 00:48:37;;;;;;;912.40;856.37;;;;;;;19.59;72.67;100311.22;333840;29;2237;-78
2022/09/06 00:48:49;;;;;;;911.05;854.88;;;;;;;19.58;72.91;100314.81;335872;29;1748;-78
2022/09/06 00:49:02;;;;;;;913.55;857.35;;;;;;;19.58;72.65;100316.63;331655;29;1308;-78
2022/09/06 00:49:23;;;;;;;909.85;853.90;;;;;;;19.57;72.97;100313.13;330346;29;3202;-77
2022/09/06 00:49:37;;;;;;;918.22;861.72;;;;;;;19.54;72.97;100313.31;330249;29;2025;-78
2022/09/06 00:49:49;;;;;;;922.80;866.15;;;;;;;19.51;73.27;100308.22;323725;30;2915;-78
2022/09/06 00:49:59;;;;;;;920.17;863.63;;;;;;;19.48;73.45;100305.75;320014;30;1440;-78
2022/09/06 00:50:11;;;;;;;926.00;869.30;;;;;;;19.47;73.40;100306.72;321235;30;2398;-78
2022/09/06 00:50:21;;;;;;;917.60;861.15;;;;;;;19.47;73.07;100312.03;321643;30;2674;-78
2022/09/06 00:50:32;;;;;;;911.25;855.05;;;;;;;19.46;73.19;100310.31;321613;30;2788;-78
2022/09/06 00:50:43;;;;;;;909.97;853.80;;;;;;;19.45;73.32;100311.28;318607;31;1341;-78
2022/09/06 00:50:56;;;;;;;906.83;850.80;;;;;;;19.45;73.36;100313.09;316065;31;2692;-78
2022/09/06 00:51:08;;;;;;;902.42;846.70;;;;;;;19.43;73.37;100317.63;315971;31;5569;-78
2022/09/06 00:51:19;;;;;;;907.38;851.54;;;;;;;19.41;73.70;100314.22;315809;31;1284;-78
2022/09/06 00:51:29;;;;;;;913.97;857.97;;;;;;;19.41;73.51;100311.59;316244;31;1015;-78
2022/09/06 00:51:40;;;;;;;915.45;859.47;;;;;;;19.40;73.81;100317.84;314814;31;1901;-78
2022/09/06 00:51:54;;;;;;;916.50;860.47;;;;;;;19.38;73.68;100312.63;314093;31;2577;-78
2022/09/06 00:52:07;;;;;;;912.42;856.42;;;;;;;19.38;73.92;100309.97;311716;31;5657;-78
2022/09/06 00:52:18;;;;;;;910.90;854.95;;;;;;;19.36;73.95;100316.34;306101;31;2983;-78
2022/09/06 00:52:29;;;;;;;923.13;866.67;;;;;;;19.35;73.90;100311.97;307398;32;1576;-78
2022/09/06 00:52:39;;;;;;;922.70;866.17;;;;;;;19.35;74.02;100309.31;307752;31;3200;-78
2022/09/06 00:52:50;;;;;;;919.60;863.20;;;;;;;19.35;73.90;100310.19;307593;31;3417;-78
2022/09/06 00:53:00;;;;;;;912.53;856.57;;;;;;;19.36;73.87;100314.53;307196;32;1638;-78
2022/09/06 00:53:11;;;;;;;916.20;860.15;;;;;;;19.36;74.16;100311.88;310159;31;3093;-77
2022/09/06 00:53:21;;;;;;;922.40;866.07;;;;;;;19.38;73.78;100309.13;309790;31;2568;-78
2022/09/06 00:53:31;;;;;;;923.22;866.75;;;;;;;19.38;73.77;100317.94;307908;32;1928;-78
2022/09/06 00:53:42;;;;;;;919.63;863.23;;;;;;;19.39;73.39;100309.03;305995;32;1511;-77